sensor_id;sensor_type;location;lat;lon;timestamp;P1;durP1;ratioP1;P2;durP2;ratioP2
83360;SDS011;73274;50.882;5.984;2023-12-20T00:00:55;13.83;;;6.50;;
83360;SDS011;73274;50.882;5.984;2023-12-20T00:03:20;10.60;;;5.78;;
83360;SDS011;73274;50.882;5.984;2023-12-20T00:05:46;15.33;;;5.43;;
83360;SDS011;73274;50.882;5.984;2023-12-20T00:08:12;8.07;;;4.53;;
83360;SDS011;73274;50.882;5.984;2023-12-20T00:10:37;10.37;;;5.47;;
83360;SDS011;73274;50.882;5.984;2023-12-20T00:13:03;8.40;;;4.63;;
83360;SDS011;73274;50.882;5.984;2023-12-20T00:15:28;14.68;;;6.20;;
83360;SDS011;73274;50.882;5.984;2023-12-20T00:17:54;11.13;;;5.70;;
83360;SDS011;73274;50.882;5.984;2023-12-20T00:20:19;15.20;;;5.73;;
83360;SDS011;73274;50.882;5.984;2023-12-20T00:22:44;7.03;;;3.87;;
83360;SDS011;73274;50.882;5.984;2023-12-20T00:25:10;9.10;;;5.43;;
83360;SDS011;73274;50.882;5.984;2023-12-20T00:27:36;9.00;;;4.43;;
83360;SDS011;73274;50.882;5.984;2023-12-20T00:30:01;13.10;;;5.80;;
83360;SDS011;73274;50.882;5.984;2023-12-20T00:32:26;13.83;;;6.67;;
83360;SDS011;73274;50.882;5.984;2023-12-20T00:34:52;10.48;;;4.93;;
83360;SDS011;73274;50.882;5.984;2023-12-20T00:37:17;9.97;;;5.10;;
83360;SDS011;73274;50.882;5.984;2023-12-20T00:39:42;11.67;;;5.13;;
83360;SDS011;73274;50.882;5.984;2023-12-20T00:42:08;7.33;;;4.23;;
83360;SDS011;73274;50.882;5.984;2023-12-20T00:44:33;8.70;;;4.80;;
83360;SDS011;73274;50.882;5.984;2023-12-20T00:46:59;10.00;;;4.70;;
83360;SDS011;73274;50.882;5.984;2023-12-20T00:49:24;9.00;;;5.20;;
83360;SDS011;73274;50.882;5.984;2023-12-20T00:51:50;8.40;;;4.00;;
83360;SDS011;73274;50.882;5.984;2023-12-20T00:54:17;7.43;;;3.22;;
83360;SDS011;73274;50.882;5.984;2023-12-20T00:56:43;6.13;;;3.40;;
83360;SDS011;73274;50.882;5.984;2023-12-20T00:59:08;4.17;;;2.30;;
83360;SDS011;73274;50.882;5.984;2023-12-20T01:01:34;6.85;;;3.00;;
83360;SDS011;73274;50.882;5.984;2023-12-20T01:03:59;11.53;;;2.37;;
83360;SDS011;73274;50.882;5.984;2023-12-20T01:06:25;9.43;;;2.87;;
83360;SDS011;73274;50.882;5.984;2023-12-20T01:08:50;5.50;;;2.00;;
83360;SDS011;73274;50.882;5.984;2023-12-20T01:11:16;3.95;;;1.80;;
83360;SDS011;73274;50.882;5.984;2023-12-20T01:13:41;7.23;;;2.10;;
83360;SDS011;73274;50.882;5.984;2023-12-20T01:16:08;5.50;;;1.98;;
83360;SDS011;73274;50.882;5.984;2023-12-20T01:18:35;8.73;;;1.93;;
83360;SDS011;73274;50.882;5.984;2023-12-20T01:21:01;7.47;;;2.15;;
83360;SDS011;73274;50.882;5.984;2023-12-20T01:23:28;3.37;;;1.40;;
83360;SDS011;73274;50.882;5.984;2023-12-20T01:25:53;3.10;;;1.70;;
83360;SDS011;73274;50.882;5.984;2023-12-20T01:28:19;5.30;;;1.70;;
83360;SDS011;73274;50.882;5.984;2023-12-20T01:30:45;4.60;;;1.55;;
83360;SDS011;73274;50.882;5.984;2023-12-20T01:33:10;4.30;;;2.00;;
83360;SDS011;73274;50.882;5.984;2023-12-20T01:35:35;4.87;;;1.87;;
83360;SDS011;73274;50.882;5.984;2023-12-20T01:38:01;4.80;;;1.87;;
83360;SDS011;73274;50.882;5.984;2023-12-20T01:40:26;2.67;;;1.80;;
83360;SDS011;73274;50.882;5.984;2023-12-20T01:43:02;16.37;;;2.67;;
83360;SDS011;73274;50.882;5.984;2023-12-20T01:45:31;9.02;;;2.53;;
83360;SDS011;73274;50.882;5.984;2023-12-20T01:47:57;8.33;;;2.53;;
83360;SDS011;73274;50.882;5.984;2023-12-20T01:50:24;3.17;;;1.85;;
83360;SDS011;73274;50.882;5.984;2023-12-20T01:52:50;4.93;;;1.50;;
83360;SDS011;73274;50.882;5.984;2023-12-20T01:55:20;6.13;;;1.60;;
83360;SDS011;73274;50.882;5.984;2023-12-20T01:57:45;3.90;;;1.42;;
83360;SDS011;73274;50.882;5.984;2023-12-20T02:00:12;2.40;;;1.08;;
83360;SDS011;73274;50.882;5.984;2023-12-20T02:02:39;5.82;;;1.75;;
83360;SDS011;73274;50.882;5.984;2023-12-20T02:05:06;6.18;;;2.03;;
83360;SDS011;73274;50.882;5.984;2023-12-20T02:07:32;4.80;;;1.30;;
83360;SDS011;73274;50.882;5.984;2023-12-20T02:09:59;3.25;;;1.30;;
83360;SDS011;73274;50.882;5.984;2023-12-20T02:12:24;5.77;;;1.47;;
83360;SDS011;73274;50.882;5.984;2023-12-20T02:14:50;5.05;;;1.10;;
83360;SDS011;73274;50.882;5.984;2023-12-20T02:17:16;4.23;;;1.40;;
83360;SDS011;73274;50.882;5.984;2023-12-20T02:19:42;5.32;;;1.20;;
83360;SDS011;73274;50.882;5.984;2023-12-20T02:22:11;2.05;;;1.20;;
83360;SDS011;73274;50.882;5.984;2023-12-20T02:24:37;4.50;;;1.53;;
83360;SDS011;73274;50.882;5.984;2023-12-20T02:27:03;1.90;;;1.30;;
83360;SDS011;73274;50.882;5.984;2023-12-20T02:29:33;3.35;;;1.15;;
83360;SDS011;73274;50.882;5.984;2023-12-20T02:31:59;2.47;;;1.08;;
83360;SDS011;73274;50.882;5.984;2023-12-20T02:34:25;2.20;;;1.40;;
83360;SDS011;73274;50.882;5.984;2023-12-20T02:36:50;4.67;;;1.60;;
83360;SDS011;73274;50.882;5.984;2023-12-20T02:39:16;8.87;;;2.37;;
83360;SDS011;73274;50.882;5.984;2023-12-20T02:41:42;5.15;;;1.45;;
83360;SDS011;73274;50.882;5.984;2023-12-20T02:44:07;3.60;;;1.70;;
83360;SDS011;73274;50.882;5.984;2023-12-20T02:46:33;1.65;;;1.30;;
83360;SDS011;73274;50.882;5.984;2023-12-20T02:48:58;4.03;;;1.60;;
83360;SDS011;73274;50.882;5.984;2023-12-20T02:51:23;3.93;;;1.83;;
83360;SDS011;73274;50.882;5.984;2023-12-20T02:53:49;5.63;;;2.20;;
83360;SDS011;73274;50.882;5.984;2023-12-20T02:56:14;4.70;;;1.50;;
83360;SDS011;73274;50.882;5.984;2023-12-20T02:58:40;3.40;;;1.60;;
83360;SDS011;73274;50.882;5.984;2023-12-20T03:01:05;3.97;;;1.67;;
83360;SDS011;73274;50.882;5.984;2023-12-20T03:03:31;5.73;;;2.50;;
83360;SDS011;73274;50.882;5.984;2023-12-20T03:05:56;5.45;;;2.20;;
83360;SDS011;73274;50.882;5.984;2023-12-20T03:08:22;4.63;;;2.23;;
83360;SDS011;73274;50.882;5.984;2023-12-20T03:10:47;3.77;;;1.73;;
83360;SDS011;73274;50.882;5.984;2023-12-20T03:13:13;3.30;;;1.93;;
83360;SDS011;73274;50.882;5.984;2023-12-20T03:15:38;4.47;;;1.90;;
83360;SDS011;73274;50.882;5.984;2023-12-20T03:18:04;2.40;;;1.55;;
83360;SDS011;73274;50.882;5.984;2023-12-20T03:20:29;4.27;;;1.97;;
83360;SDS011;73274;50.882;5.984;2023-12-20T03:22:58;12.55;;;2.40;;
83360;SDS011;73274;50.882;5.984;2023-12-20T03:25:23;3.07;;;1.97;;
83360;SDS011;73274;50.882;5.984;2023-12-20T03:27:49;3.40;;;1.93;;
83360;SDS011;73274;50.882;5.984;2023-12-20T03:30:14;5.35;;;1.50;;
83360;SDS011;73274;50.882;5.984;2023-12-20T03:32:39;2.87;;;1.87;;
83360;SDS011;73274;50.882;5.984;2023-12-20T03:35:05;7.43;;;2.37;;
83360;SDS011;73274;50.882;5.984;2023-12-20T03:37:31;8.63;;;1.90;;
83360;SDS011;73274;50.882;5.984;2023-12-20T03:39:56;3.60;;;1.83;;
83360;SDS011;73274;50.882;5.984;2023-12-20T03:42:21;3.43;;;1.60;;
83360;SDS011;73274;50.882;5.984;2023-12-20T03:44:47;3.03;;;1.87;;
83360;SDS011;73274;50.882;5.984;2023-12-20T03:47:12;4.67;;;2.20;;
83360;SDS011;73274;50.882;5.984;2023-12-20T03:49:38;3.00;;;1.63;;
83360;SDS011;73274;50.882;5.984;2023-12-20T03:52:04;4.80;;;1.50;;
83360;SDS011;73274;50.882;5.984;2023-12-20T03:54:29;4.97;;;1.90;;
83360;SDS011;73274;50.882;5.984;2023-12-20T03:56:55;3.30;;;1.88;;
83360;SDS011;73274;50.882;5.984;2023-12-20T03:59:20;9.77;;;2.30;;
83360;SDS011;73274;50.882;5.984;2023-12-20T04:01:46;10.00;;;1.70;;
83360;SDS011;73274;50.882;5.984;2023-12-20T04:04:12;5.13;;;1.87;;
83360;SDS011;73274;50.882;5.984;2023-12-20T04:06:38;2.75;;;1.83;;
83360;SDS011;73274;50.882;5.984;2023-12-20T04:09:03;3.80;;;1.07;;
83360;SDS011;73274;50.882;5.984;2023-12-20T04:11:29;12.77;;;2.30;;
83360;SDS011;73274;50.882;5.984;2023-12-20T04:13:54;3.53;;;1.23;;
83360;SDS011;73274;50.882;5.984;2023-12-20T04:16:19;5.37;;;1.80;;
83360;SDS011;73274;50.882;5.984;2023-12-20T04:18:45;3.50;;;1.40;;
83360;SDS011;73274;50.882;5.984;2023-12-20T04:21:10;1.67;;;1.17;;
83360;SDS011;73274;50.882;5.984;2023-12-20T04:23:36;1.70;;;1.17;;
83360;SDS011;73274;50.882;5.984;2023-12-20T04:26:01;5.80;;;1.40;;
83360;SDS011;73274;50.882;5.984;2023-12-20T04:28:27;4.38;;;1.25;;
83360;SDS011;73274;50.882;5.984;2023-12-20T04:30:55;5.43;;;1.47;;
83360;SDS011;73274;50.882;5.984;2023-12-20T04:33:21;5.28;;;1.83;;
83360;SDS011;73274;50.882;5.984;2023-12-20T04:35:46;5.20;;;1.70;;
83360;SDS011;73274;50.882;5.984;2023-12-20T04:38:11;4.10;;;2.00;;
83360;SDS011;73274;50.882;5.984;2023-12-20T04:40:37;3.40;;;1.67;;
83360;SDS011;73274;50.882;5.984;2023-12-20T04:43:03;5.07;;;1.70;;
83360;SDS011;73274;50.882;5.984;2023-12-20T04:45:29;1.77;;;1.00;;
83360;SDS011;73274;50.882;5.984;2023-12-20T04:47:54;8.00;;;1.60;;
83360;SDS011;73274;50.882;5.984;2023-12-20T04:50:20;9.02;;;1.50;;
83360;SDS011;73274;50.882;5.984;2023-12-20T04:52:46;4.40;;;1.65;;
83360;SDS011;73274;50.882;5.984;2023-12-20T04:55:12;6.77;;;2.27;;
83360;SDS011;73274;50.882;5.984;2023-12-20T04:57:37;8.20;;;1.50;;
83360;SDS011;73274;50.882;5.984;2023-12-20T05:00:03;2.63;;;1.33;;
83360;SDS011;73274;50.882;5.984;2023-12-20T05:02:29;7.10;;;1.83;;
83360;SDS011;73274;50.882;5.984;2023-12-20T05:04:55;3.27;;;1.17;;
83360;SDS011;73274;50.882;5.984;2023-12-20T05:07:20;4.40;;;1.30;;
83360;SDS011;73274;50.882;5.984;2023-12-20T05:09:46;3.33;;;1.10;;
83360;SDS011;73274;50.882;5.984;2023-12-20T05:12:12;3.05;;;0.98;;
83360;SDS011;73274;50.882;5.984;2023-12-20T05:14:37;7.57;;;2.07;;
83360;SDS011;73274;50.882;5.984;2023-12-20T05:17:02;13.30;;;2.20;;
83360;SDS011;73274;50.882;5.984;2023-12-20T05:19:28;3.83;;;1.20;;
83360;SDS011;73274;50.882;5.984;2023-12-20T05:21:53;4.57;;;1.53;;
83360;SDS011;73274;50.882;5.984;2023-12-20T05:24:19;4.73;;;1.60;;
83360;SDS011;73274;50.882;5.984;2023-12-20T05:26:44;5.60;;;1.67;;
83360;SDS011;73274;50.882;5.984;2023-12-20T05:29:10;4.20;;;1.73;;
83360;SDS011;73274;50.882;5.984;2023-12-20T05:31:35;7.07;;;2.03;;
83360;SDS011;73274;50.882;5.984;2023-12-20T05:34:00;6.07;;;1.70;;
83360;SDS011;73274;50.882;5.984;2023-12-20T05:36:26;8.30;;;1.90;;
83360;SDS011;73274;50.882;5.984;2023-12-20T05:38:51;5.88;;;1.73;;
83360;SDS011;73274;50.882;5.984;2023-12-20T05:41:17;4.60;;;1.73;;
83360;SDS011;73274;50.882;5.984;2023-12-20T05:43:42;6.17;;;1.90;;
83360;SDS011;73274;50.882;5.984;2023-12-20T05:46:09;8.40;;;1.40;;
83360;SDS011;73274;50.882;5.984;2023-12-20T05:48:36;7.50;;;2.40;;
83360;SDS011;73274;50.882;5.984;2023-12-20T05:51:01;4.90;;;1.93;;
83360;SDS011;73274;50.882;5.984;2023-12-20T05:53:27;5.70;;;2.10;;
83360;SDS011;73274;50.882;5.984;2023-12-20T05:55:52;11.33;;;2.50;;
83360;SDS011;73274;50.882;5.984;2023-12-20T05:58:18;7.63;;;1.93;;
83360;SDS011;73274;50.882;5.984;2023-12-20T06:00:43;5.47;;;1.77;;
83360;SDS011;73274;50.882;5.984;2023-12-20T06:03:08;7.45;;;1.92;;
83360;SDS011;73274;50.882;5.984;2023-12-20T06:05:34;4.40;;;1.90;;
83360;SDS011;73274;50.882;5.984;2023-12-20T06:07:59;8.27;;;2.07;;
83360;SDS011;73274;50.882;5.984;2023-12-20T06:10:28;3.45;;;1.85;;
83360;SDS011;73274;50.882;5.984;2023-12-20T06:12:53;3.20;;;1.63;;
83360;SDS011;73274;50.882;5.984;2023-12-20T06:15:19;4.73;;;2.07;;
83360;SDS011;73274;50.882;5.984;2023-12-20T06:17:45;3.40;;;1.83;;
83360;SDS011;73274;50.882;5.984;2023-12-20T06:20:11;5.65;;;1.95;;
83360;SDS011;73274;50.882;5.984;2023-12-20T06:22:38;4.90;;;2.43;;
83360;SDS011;73274;50.882;5.984;2023-12-20T06:25:03;7.30;;;2.33;;
83360;SDS011;73274;50.882;5.984;2023-12-20T06:27:29;4.68;;;1.83;;
83360;SDS011;73274;50.882;5.984;2023-12-20T06:30:00;3.87;;;1.87;;
83360;SDS011;73274;50.882;5.984;2023-12-20T06:32:25;5.03;;;1.88;;
83360;SDS011;73274;50.882;5.984;2023-12-20T06:34:51;11.87;;;2.33;;
83360;SDS011;73274;50.882;5.984;2023-12-20T06:37:16;3.53;;;1.90;;
83360;SDS011;73274;50.882;5.984;2023-12-20T06:39:42;5.67;;;2.20;;
83360;SDS011;73274;50.882;5.984;2023-12-20T06:42:07;6.33;;;2.20;;
83360;SDS011;73274;50.882;5.984;2023-12-20T06:44:32;4.00;;;2.03;;
83360;SDS011;73274;50.882;5.984;2023-12-20T06:46:58;4.43;;;1.87;;
83360;SDS011;73274;50.882;5.984;2023-12-20T06:49:23;5.17;;;2.30;;
83360;SDS011;73274;50.882;5.984;2023-12-20T06:51:49;5.80;;;2.08;;
83360;SDS011;73274;50.882;5.984;2023-12-20T06:54:14;4.73;;;2.20;;
83360;SDS011;73274;50.882;5.984;2023-12-20T06:56:40;5.33;;;2.30;;
83360;SDS011;73274;50.882;5.984;2023-12-20T06:59:06;6.72;;;3.08;;
83360;SDS011;73274;50.882;5.984;2023-12-20T07:01:31;4.03;;;2.17;;
83360;SDS011;73274;50.882;5.984;2023-12-20T07:03:57;6.25;;;2.35;;
83360;SDS011;73274;50.882;5.984;2023-12-20T07:06:22;14.60;;;2.83;;
83360;SDS011;73274;50.882;5.984;2023-12-20T07:08:48;7.63;;;2.47;;
83360;SDS011;73274;50.882;5.984;2023-12-20T07:11:13;5.93;;;2.85;;
83360;SDS011;73274;50.882;5.984;2023-12-20T07:13:39;5.70;;;2.70;;
83360;SDS011;73274;50.882;5.984;2023-12-20T07:16:04;5.50;;;2.37;;
83360;SDS011;73274;50.882;5.984;2023-12-20T07:18:30;4.60;;;2.17;;
83360;SDS011;73274;50.882;5.984;2023-12-20T07:20:55;8.20;;;2.87;;
83360;SDS011;73274;50.882;5.984;2023-12-20T07:23:20;6.53;;;2.30;;
83360;SDS011;73274;50.882;5.984;2023-12-20T07:25:46;8.40;;;2.23;;
83360;SDS011;73274;50.882;5.984;2023-12-20T07:28:12;10.80;;;2.33;;
83360;SDS011;73274;50.882;5.984;2023-12-20T07:30:38;5.15;;;2.42;;
83360;SDS011;73274;50.882;5.984;2023-12-20T07:33:04;4.53;;;2.30;;
83360;SDS011;73274;50.882;5.984;2023-12-20T07:35:30;9.38;;;2.70;;
83360;SDS011;73274;50.882;5.984;2023-12-20T07:37:55;6.27;;;2.33;;
83360;SDS011;73274;50.882;5.984;2023-12-20T07:40:21;4.07;;;1.83;;
83360;SDS011;73274;50.882;5.984;2023-12-20T07:42:46;6.10;;;2.43;;
83360;SDS011;73274;50.882;5.984;2023-12-20T07:45:12;9.40;;;2.20;;
83360;SDS011;73274;50.882;5.984;2023-12-20T07:47:37;9.63;;;2.00;;
83360;SDS011;73274;50.882;5.984;2023-12-20T07:50:02;3.93;;;1.93;;
83360;SDS011;73274;50.882;5.984;2023-12-20T07:52:29;8.43;;;2.00;;
83360;SDS011;73274;50.882;5.984;2023-12-20T07:54:55;4.77;;;2.10;;
83360;SDS011;73274;50.882;5.984;2023-12-20T07:57:20;5.25;;;2.20;;
83360;SDS011;73274;50.882;5.984;2023-12-20T07:59:46;4.93;;;1.63;;
83360;SDS011;73274;50.882;5.984;2023-12-20T08:02:11;3.00;;;1.80;;
83360;SDS011;73274;50.882;5.984;2023-12-20T08:04:37;10.63;;;3.75;;
83360;SDS011;73274;50.882;5.984;2023-12-20T08:07:03;3.77;;;1.87;;
83360;SDS011;73274;50.882;5.984;2023-12-20T08:09:29;13.52;;;2.58;;
83360;SDS011;73274;50.882;5.984;2023-12-20T08:11:54;9.40;;;2.55;;
83360;SDS011;73274;50.882;5.984;2023-12-20T08:14:20;4.60;;;2.10;;
83360;SDS011;73274;50.882;5.984;2023-12-20T08:16:46;6.00;;;2.45;;
83360;SDS011;73274;50.882;5.984;2023-12-20T08:19:11;6.20;;;1.87;;
83360;SDS011;73274;50.882;5.984;2023-12-20T08:21:38;6.93;;;2.42;;
83360;SDS011;73274;50.882;5.984;2023-12-20T08:24:04;9.93;;;2.23;;
83360;SDS011;73274;50.882;5.984;2023-12-20T08:26:29;5.88;;;2.97;;
83360;SDS011;73274;50.882;5.984;2023-12-20T08:28:55;2.93;;;1.83;;
83360;SDS011;73274;50.882;5.984;2023-12-20T08:31:20;7.17;;;3.10;;
83360;SDS011;73274;50.882;5.984;2023-12-20T08:33:46;6.45;;;2.22;;
83360;SDS011;73274;50.882;5.984;2023-12-20T08:36:13;5.20;;;2.23;;
83360;SDS011;73274;50.882;5.984;2023-12-20T08:38:39;6.35;;;2.65;;
83360;SDS011;73274;50.882;5.984;2023-12-20T08:41:06;9.23;;;2.80;;
83360;SDS011;73274;50.882;5.984;2023-12-20T08:43:31;5.70;;;2.30;;
83360;SDS011;73274;50.882;5.984;2023-12-20T08:45:59;6.70;;;2.10;;
83360;SDS011;73274;50.882;5.984;2023-12-20T08:48:24;11.30;;;2.40;;
83360;SDS011;73274;50.882;5.984;2023-12-20T08:50:50;11.77;;;2.07;;
83360;SDS011;73274;50.882;5.984;2023-12-20T08:53:17;5.97;;;2.22;;
83360;SDS011;73274;50.882;5.984;2023-12-20T08:55:43;6.55;;;2.28;;
83360;SDS011;73274;50.882;5.984;2023-12-20T08:58:09;3.67;;;1.87;;
83360;SDS011;73274;50.882;5.984;2023-12-20T09:00:35;7.50;;;2.30;;
83360;SDS011;73274;50.882;5.984;2023-12-20T09:03:01;4.30;;;1.90;;
83360;SDS011;73274;50.882;5.984;2023-12-20T09:05:27;5.50;;;2.17;;
83360;SDS011;73274;50.882;5.984;2023-12-20T09:07:52;6.83;;;2.20;;
83360;SDS011;73274;50.882;5.984;2023-12-20T09:10:18;7.28;;;2.03;;
83360;SDS011;73274;50.882;5.984;2023-12-20T09:12:50;2.50;;;1.70;;
83360;SDS011;73274;50.882;5.984;2023-12-20T09:15:16;6.43;;;2.03;;
83360;SDS011;73274;50.882;5.984;2023-12-20T09:17:42;3.83;;;2.10;;
83360;SDS011;73274;50.882;5.984;2023-12-20T09:20:08;12.23;;;2.27;;
83360;SDS011;73274;50.882;5.984;2023-12-20T09:22:34;3.47;;;2.28;;
83360;SDS011;73274;50.882;5.984;2023-12-20T09:25:00;11.43;;;2.10;;
83360;SDS011;73274;50.882;5.984;2023-12-20T09:27:27;5.07;;;2.35;;
83360;SDS011;73274;50.882;5.984;2023-12-20T09:29:54;4.10;;;1.83;;
83360;SDS011;73274;50.882;5.984;2023-12-20T09:32:19;5.28;;;2.33;;
83360;SDS011;73274;50.882;5.984;2023-12-20T09:34:47;2.77;;;1.70;;
83360;SDS011;73274;50.882;5.984;2023-12-20T09:37:13;8.30;;;2.65;;
83360;SDS011;73274;50.882;5.984;2023-12-20T09:39:39;4.90;;;1.67;;
83360;SDS011;73274;50.882;5.984;2023-12-20T09:42:05;4.30;;;1.67;;
83360;SDS011;73274;50.882;5.984;2023-12-20T09:44:31;2.63;;;1.48;;
83360;SDS011;73274;50.882;5.984;2023-12-20T09:47:03;6.37;;;1.80;;
83360;SDS011;73274;50.882;5.984;2023-12-20T09:49:31;5.65;;;1.85;;
83360;SDS011;73274;50.882;5.984;2023-12-20T09:51:58;3.75;;;1.80;;
83360;SDS011;73274;50.882;5.984;2023-12-20T09:54:25;4.35;;;1.60;;
83360;SDS011;73274;50.882;5.984;2023-12-20T09:56:53;4.07;;;1.20;;
83360;SDS011;73274;50.882;5.984;2023-12-20T09:59:19;6.77;;;1.80;;
83360;SDS011;73274;50.882;5.984;2023-12-20T10:01:44;4.13;;;1.80;;
83360;SDS011;73274;50.882;5.984;2023-12-20T10:04:10;4.03;;;1.77;;
83360;SDS011;73274;50.882;5.984;2023-12-20T10:06:38;7.35;;;1.80;;
83360;SDS011;73274;50.882;5.984;2023-12-20T10:09:08;3.80;;;1.58;;
83360;SDS011;73274;50.882;5.984;2023-12-20T10:11:35;5.60;;;1.57;;
83360;SDS011;73274;50.882;5.984;2023-12-20T10:14:02;5.22;;;1.52;;
83360;SDS011;73274;50.882;5.984;2023-12-20T10:16:28;3.75;;;1.40;;
83360;SDS011;73274;50.882;5.984;2023-12-20T10:18:54;3.88;;;1.95;;
83360;SDS011;73274;50.882;5.984;2023-12-20T10:21:21;3.22;;;1.45;;
83360;SDS011;73274;50.882;5.984;2023-12-20T10:23:47;4.47;;;1.93;;
83360;SDS011;73274;50.882;5.984;2023-12-20T10:26:24;3.22;;;1.63;;
83360;SDS011;73274;50.882;5.984;2023-12-20T10:28:52;3.35;;;1.65;;
83360;SDS011;73274;50.882;5.984;2023-12-20T10:31:28;3.40;;;1.85;;
83360;SDS011;73274;50.882;5.984;2023-12-20T10:33:58;4.10;;;1.95;;
83360;SDS011;73274;50.882;5.984;2023-12-20T10:36:25;2.17;;;1.30;;
83360;SDS011;73274;50.882;5.984;2023-12-20T10:38:52;3.17;;;1.60;;
83360;SDS011;73274;50.882;5.984;2023-12-20T10:41:20;9.13;;;1.70;;
83360;SDS011;73274;50.882;5.984;2023-12-20T10:43:51;4.43;;;1.85;;
83360;SDS011;73274;50.882;5.984;2023-12-20T10:46:17;6.17;;;1.67;;
83360;SDS011;73274;50.882;5.984;2023-12-20T10:48:45;3.88;;;1.30;;
83360;SDS011;73274;50.882;5.984;2023-12-20T10:51:10;6.57;;;1.73;;
83360;SDS011;73274;50.882;5.984;2023-12-20T10:53:37;4.30;;;1.48;;
83360;SDS011;73274;50.882;5.984;2023-12-20T10:56:05;4.00;;;1.37;;
83360;SDS011;73274;50.882;5.984;2023-12-20T10:58:33;5.00;;;1.42;;
83360;SDS011;73274;50.882;5.984;2023-12-20T11:01:01;3.17;;;1.55;;
83360;SDS011;73274;50.882;5.984;2023-12-20T11:03:27;2.58;;;1.48;;
83360;SDS011;73274;50.882;5.984;2023-12-20T11:08:51;3.77;;;1.30;;
83360;SDS011;73274;50.882;5.984;2023-12-20T11:11:31;5.70;;;1.55;;
83360;SDS011;73274;50.882;5.984;2023-12-20T11:14:04;4.95;;;1.80;;
83360;SDS011;73274;50.882;5.984;2023-12-20T11:16:36;4.28;;;1.38;;
83360;SDS011;73274;50.882;5.984;2023-12-20T11:19:05;7.00;;;1.60;;
83360;SDS011;73274;50.882;5.984;2023-12-20T11:21:31;2.40;;;1.57;;
83360;SDS011;73274;50.882;5.984;2023-12-20T11:23:56;4.37;;;2.17;;
83360;SDS011;73274;50.882;5.984;2023-12-20T11:26:28;5.47;;;1.50;;
83360;SDS011;73274;50.882;5.984;2023-12-20T11:29:02;10.55;;;3.08;;
83360;SDS011;73274;50.882;5.984;2023-12-20T11:31:57;4.60;;;1.27;;
83360;SDS011;73274;50.882;5.984;2023-12-20T11:34:22;6.13;;;1.50;;
83360;SDS011;73274;50.882;5.984;2023-12-20T11:37:02;4.78;;;1.95;;
83360;SDS011;73274;50.882;5.984;2023-12-20T11:39:28;16.05;;;2.45;;
83360;SDS011;73274;50.882;5.984;2023-12-20T11:41:56;4.43;;;1.65;;
83360;SDS011;73274;50.882;5.984;2023-12-20T11:44:22;4.95;;;1.73;;
83360;SDS011;73274;50.882;5.984;2023-12-20T11:46:51;3.87;;;1.83;;
83360;SDS011;73274;50.882;5.984;2023-12-20T11:49:16;4.90;;;2.33;;
83360;SDS011;73274;50.882;5.984;2023-12-20T11:51:42;3.40;;;1.80;;
83360;SDS011;73274;50.882;5.984;2023-12-20T11:54:07;10.48;;;2.13;;
83360;SDS011;73274;50.882;5.984;2023-12-20T11:56:35;4.30;;;1.87;;
83360;SDS011;73274;50.882;5.984;2023-12-20T11:59:01;2.85;;;1.48;;
83360;SDS011;73274;50.882;5.984;2023-12-20T12:01:26;7.37;;;1.70;;
83360;SDS011;73274;50.882;5.984;2023-12-20T12:04:02;3.73;;;1.60;;
83360;SDS011;73274;50.882;5.984;2023-12-20T12:06:31;2.45;;;1.67;;
83360;SDS011;73274;50.882;5.984;2023-12-20T12:08:57;9.03;;;1.73;;
83360;SDS011;73274;50.882;5.984;2023-12-20T12:11:22;9.15;;;2.58;;
83360;SDS011;73274;50.882;5.984;2023-12-20T12:13:48;7.73;;;1.97;;
83360;SDS011;73274;50.882;5.984;2023-12-20T12:16:17;3.53;;;1.80;;
83360;SDS011;73274;50.882;5.984;2023-12-20T12:18:45;3.47;;;1.48;;
83360;SDS011;73274;50.882;5.984;2023-12-20T12:21:10;2.80;;;1.63;;
83360;SDS011;73274;50.882;5.984;2023-12-20T12:23:43;3.22;;;1.20;;
83360;SDS011;73274;50.882;5.984;2023-12-20T12:26:08;8.43;;;2.00;;
83360;SDS011;73274;50.882;5.984;2023-12-20T12:28:34;3.07;;;1.37;;
83360;SDS011;73274;50.882;5.984;2023-12-20T12:31:00;5.00;;;1.90;;
83360;SDS011;73274;50.882;5.984;2023-12-20T12:33:26;4.70;;;2.05;;
83360;SDS011;73274;50.882;5.984;2023-12-20T12:35:52;5.72;;;2.35;;
83360;SDS011;73274;50.882;5.984;2023-12-20T12:38:21;4.23;;;1.43;;
83360;SDS011;73274;50.882;5.984;2023-12-20T12:40:46;5.45;;;1.55;;
83360;SDS011;73274;50.882;5.984;2023-12-20T12:43:12;8.63;;;2.10;;
83360;SDS011;73274;50.882;5.984;2023-12-20T12:45:38;9.40;;;1.60;;
83360;SDS011;73274;50.882;5.984;2023-12-20T12:48:03;6.10;;;1.40;;
83360;SDS011;73274;50.882;5.984;2023-12-20T12:50:30;4.38;;;1.90;;
83360;SDS011;73274;50.882;5.984;2023-12-20T12:52:56;5.70;;;2.20;;
83360;SDS011;73274;50.882;5.984;2023-12-20T12:55:21;7.33;;;2.10;;
83360;SDS011;73274;50.882;5.984;2023-12-20T12:57:47;5.50;;;2.37;;
83360;SDS011;73274;50.882;5.984;2023-12-20T13:00:12;3.83;;;1.87;;
83360;SDS011;73274;50.882;5.984;2023-12-20T13:02:39;4.55;;;2.38;;
83360;SDS011;73274;50.882;5.984;2023-12-20T13:05:07;8.27;;;2.20;;
83360;SDS011;73274;50.882;5.984;2023-12-20T13:07:33;6.40;;;2.30;;
83360;SDS011;73274;50.882;5.984;2023-12-20T13:09:59;4.47;;;1.98;;
83360;SDS011;73274;50.882;5.984;2023-12-20T13:12:25;9.98;;;2.15;;
83360;SDS011;73274;50.882;5.984;2023-12-20T13:14:51;4.30;;;1.63;;
83360;SDS011;73274;50.882;5.984;2023-12-20T13:17:16;6.20;;;2.10;;
83360;SDS011;73274;50.882;5.984;2023-12-20T13:19:42;5.10;;;2.20;;
83360;SDS011;73274;50.882;5.984;2023-12-20T13:22:07;5.67;;;2.23;;
83360;SDS011;73274;50.882;5.984;2023-12-20T13:24:34;3.10;;;1.58;;
83360;SDS011;73274;50.882;5.984;2023-12-20T13:26:59;3.75;;;1.98;;
83360;SDS011;73274;50.882;5.984;2023-12-20T13:29:25;6.77;;;1.90;;
83360;SDS011;73274;50.882;5.984;2023-12-20T13:31:53;5.00;;;1.83;;
83360;SDS011;73274;50.882;5.984;2023-12-20T13:34:19;3.40;;;2.20;;
83360;SDS011;73274;50.882;5.984;2023-12-20T13:36:44;5.23;;;2.10;;
83360;SDS011;73274;50.882;5.984;2023-12-20T13:39:15;8.40;;;2.33;;
83360;SDS011;73274;50.882;5.984;2023-12-20T13:41:40;7.82;;;2.17;;
83360;SDS011;73274;50.882;5.984;2023-12-20T13:44:06;6.43;;;2.23;;
83360;SDS011;73274;50.882;5.984;2023-12-20T13:46:31;3.93;;;1.87;;
83360;SDS011;73274;50.882;5.984;2023-12-20T13:48:57;5.90;;;1.77;;
83360;SDS011;73274;50.882;5.984;2023-12-20T13:51:22;9.83;;;2.60;;
83360;SDS011;73274;50.882;5.984;2023-12-20T13:53:48;4.60;;;2.63;;
83360;SDS011;73274;50.882;5.984;2023-12-20T13:56:14;6.43;;;2.25;;
83360;SDS011;73274;50.882;5.984;2023-12-20T13:58:40;3.88;;;1.83;;
83360;SDS011;73274;50.882;5.984;2023-12-20T14:01:07;6.97;;;2.42;;
83360;SDS011;73274;50.882;5.984;2023-12-20T14:03:33;6.57;;;2.55;;
83360;SDS011;73274;50.882;5.984;2023-12-20T14:05:59;4.27;;;2.10;;
83360;SDS011;73274;50.882;5.984;2023-12-20T14:08:26;4.95;;;1.92;;
83360;SDS011;73274;50.882;5.984;2023-12-20T14:10:52;3.37;;;1.73;;
83360;SDS011;73274;50.882;5.984;2023-12-20T14:13:18;2.85;;;1.83;;
83360;SDS011;73274;50.882;5.984;2023-12-20T14:15:43;5.88;;;2.00;;
83360;SDS011;73274;50.882;5.984;2023-12-20T14:18:09;3.70;;;2.07;;
83360;SDS011;73274;50.882;5.984;2023-12-20T14:20:35;6.05;;;2.00;;
83360;SDS011;73274;50.882;5.984;2023-12-20T14:23:01;4.10;;;2.38;;
83360;SDS011;73274;50.882;5.984;2023-12-20T14:25:28;4.87;;;2.33;;
83360;SDS011;73274;50.882;5.984;2023-12-20T14:27:53;5.65;;;2.30;;
83360;SDS011;73274;50.882;5.984;2023-12-20T14:30:19;3.30;;;1.90;;
83360;SDS011;73274;50.882;5.984;2023-12-20T14:32:44;8.03;;;2.03;;
83360;SDS011;73274;50.882;5.984;2023-12-20T14:35:10;5.10;;;2.63;;
83360;SDS011;73274;50.882;5.984;2023-12-20T14:37:36;4.97;;;1.90;;
83360;SDS011;73274;50.882;5.984;2023-12-20T14:40:06;4.10;;;2.40;;
83360;SDS011;73274;50.882;5.984;2023-12-20T14:42:35;4.73;;;2.47;;